sensor_id;sensor_type;location;lat;lon;timestamp;pressure;altitude;pressure_sealevel;temperature;humidity
9035;BME280;4552;43.422;24.592;2023-04-01T02:09:17;98757.13;;;10.32;83.66
9035;BME280;4552;43.422;24.592;2023-04-01T02:11:47;98772.00;;;10.30;84.37
9035;BME280;4552;43.422;24.592;2023-04-01T02:14:17;98765.34;;;10.20;83.61
9035;BME280;4552;43.422;24.592;2023-04-01T02:16:51;98766.19;;;10.21;84.63
9035;BME280;4552;43.422;24.592;2023-04-01T02:19:20;98766.47;;;10.39;84.34
9035;BME280;4552;43.422;24.592;2023-04-01T03:14:13;98718.81;;;11.54;79.55
9035;BME280;4552;43.422;24.592;2023-04-01T03:16:40;98720.66;;;11.75;78.68
9035;BME280;4552;43.422;24.592;2023-04-01T03:19:06;98723.81;;;12.06;76.14
9035;BME280;4552;43.422;24.592;2023-04-01T03:21:33;98713.13;;;12.11;75.21
9035;BME280;4552;43.422;24.592;2023-04-01T03:24:00;98703.09;;;12.22;74.07
9035;BME280;4552;43.422;24.592;2023-04-01T03:26:27;98710.59;;;12.31;73.22
9035;BME280;4552;43.422;24.592;2023-04-01T03:28:54;98713.88;;;12.14;76.62
9035;BME280;4552;43.422;24.592;2023-04-01T03:31:23;98706.56;;;12.23;75.12
9035;BME280;4552;43.422;24.592;2023-04-01T03:33:50;98705.84;;;12.19;73.96
9035;BME280;4552;43.422;24.592;2023-04-01T03:36:17;98717.13;;;12.21;76.14
9035;BME280;4552;43.422;24.592;2023-04-01T03:38:44;98717.06;;;12.23;76.76
9035;BME280;4552;43.422;24.592;2023-04-01T03:41:12;98718.25;;;12.14;76.48
9035;BME280;4552;43.422;24.592;2023-04-01T03:43:39;98706.97;;;12.12;77.47
9035;BME280;4552;43.422;24.592;2023-04-01T03:46:06;98700.47;;;12.22;76.05
9035;BME280;4552;43.422;24.592;2023-04-01T03:48:35;98719.97;;;12.37;74.30
9035;BME280;4552;43.422;24.592;2023-04-01T03:51:05;98715.19;;;12.46;73.47
9035;BME280;4552;43.422;24.592;2023-04-01T03:53:32;98713.22;;;12.73;70.32
9035;BME280;4552;43.422;24.592;2023-04-01T03:56:03;98727.34;;;12.90;68.53
9035;BME280;4552;43.422;24.592;2023-04-01T03:58:30;98726.94;;;12.99;67.15
9035;BME280;4552;43.422;24.592;2023-04-01T04:00:57;98730.13;;;13.27;66.29
9035;BME280;4552;43.422;24.592;2023-04-01T04:03:24;98726.69;;;13.45;64.85
9035;BME280;4552;43.422;24.592;2023-04-01T04:05:52;98736.63;;;13.57;63.72
9035;BME280;4552;43.422;24.592;2023-04-01T04:08:21;98725.44;;;13.54;63.76
9035;BME280;4552;43.422;24.592;2023-04-01T04:10:51;98731.66;;;13.51;63.51
9035;BME280;4552;43.422;24.592;2023-04-01T04:13:20;98738.22;;;13.61;62.96
9035;BME280;4552;43.422;24.592;2023-04-01T04:15:47;98731.09;;;13.63;62.77
9035;BME280;4552;43.422;24.592;2023-04-01T04:18:14;98733.38;;;13.71;62.73
9035;BME280;4552;43.422;24.592;2023-04-01T04:20:44;98730.97;;;13.85;62.01
9035;BME280;4552;43.422;24.592;2023-04-01T04:23:14;98739.72;;;13.85;64.00
9035;BME280;4552;43.422;24.592;2023-04-01T04:25:54;98739.50;;;13.71;65.10
9035;BME280;4552;43.422;24.592;2023-04-01T04:28:21;98732.84;;;13.64;68.25
9035;BME280;4552;43.422;24.592;2023-04-01T04:30:48;98723.34;;;13.60;68.05
9035;BME280;4552;43.422;24.592;2023-04-01T04:33:15;98732.09;;;13.61;68.67
9035;BME280;4552;43.422;24.592;2023-04-01T04:35:41;98741.75;;;13.60;69.70
9035;BME280;4552;43.422;24.592;2023-04-01T04:38:08;98743.91;;;13.52;71.72
9035;BME280;4552;43.422;24.592;2023-04-01T04:40:37;98745.31;;;13.59;70.00
9035;BME280;4552;43.422;24.592;2023-04-01T04:43:04;98739.91;;;13.62;68.43
9035;BME280;4552;43.422;24.592;2023-04-01T04:45:31;98746.59;;;13.69;68.30
9035;BME280;4552;43.422;24.592;2023-04-01T04:47:59;98743.69;;;13.75;69.47
9035;BME280;4552;43.422;24.592;2023-04-01T05:14:23;98752.78;;;13.30;75.74
9035;BME280;4552;43.422;24.592;2023-04-01T05:16:49;98738.59;;;13.34;76.15
9035;BME280;4552;43.422;24.592;2023-04-01T05:19:16;98738.59;;;13.34;77.78
9035;BME280;4552;43.422;24.592;2023-04-01T05:56:08;98715.09;;;14.78;62.47
9035;BME280;4552;43.422;24.592;2023-04-01T05:58:36;98712.25;;;14.98;61.62
9035;BME280;4552;43.422;24.592;2023-04-01T06:01:06;98695.84;;;15.10;61.30
9035;BME280;4552;43.422;24.592;2023-04-01T06:03:33;98700.41;;;15.23;60.85
9035;BME280;4552;43.422;24.592;2023-04-01T06:06:01;98689.00;;;15.40;61.28
9035;BME280;4552;43.422;24.592;2023-04-01T06:08:31;98685.47;;;15.56;62.49
9035;BME280;4552;43.422;24.592;2023-04-01T06:11:22;98680.09;;;15.58;63.74
9035;BME280;4552;43.422;24.592;2023-04-01T06:14:16;98678.66;;;15.68;66.11
9035;BME280;4552;43.422;24.592;2023-04-01T06:17:02;98685.31;;;15.75;64.55
9035;BME280;4552;43.422;24.592;2023-04-01T06:19:38;98679.69;;;15.66;61.02
9035;BME280;4552;43.422;24.592;2023-04-01T06:32:15;98670.94;;;15.96;60.81
9035;BME280;4552;43.422;24.592;2023-04-01T06:35:12;98670.06;;;15.96;59.76
9035;BME280;4552;43.422;24.592;2023-04-01T06:37:52;98664.69;;;16.28;59.16
9035;BME280;4552;43.422;24.592;2023-04-01T06:43:54;98655.47;;;16.35;58.38
9035;BME280;4552;43.422;24.592;2023-04-01T06:46:30;98663.66;;;16.46;57.76
9035;BME280;4552;43.422;24.592;2023-04-01T06:49:24;98656.16;;;16.54;57.82
9035;BME280;4552;43.422;24.592;2023-04-01T06:51:59;98659.75;;;16.53;57.68
9035;BME280;4552;43.422;24.592;2023-04-01T07:04:37;98658.84;;;17.26;52.83
9035;BME280;4552;43.422;24.592;2023-04-01T07:07:14;98656.72;;;17.47;52.20
9035;BME280;4552;43.422;24.592;2023-04-01T07:09:49;98648.69;;;17.48;51.44
9035;BME280;4552;43.422;24.592;2023-04-01T07:12:32;98636.00;;;17.25;53.09
9035;BME280;4552;43.422;24.592;2023-04-01T07:15:05;98645.09;;;17.49;52.67
9035;BME280;4552;43.422;24.592;2023-04-01T07:17:39;98635.78;;;17.84;51.90
9035;BME280;4552;43.422;24.592;2023-04-01T07:20:23;98643.75;;;17.70;50.68
9035;BME280;4552;43.422;24.592;2023-04-01T07:22:56;98637.72;;;17.68;51.11
9035;BME280;4552;43.422;24.592;2023-04-01T07:55:33;98643.91;;;18.87;52.76
9035;BME280;4552;43.422;24.592;2023-04-01T07:58:07;98633.53;;;19.22;51.44
9035;BME280;4552;43.422;24.592;2023-04-01T08:00:44;98631.75;;;19.10;51.11
9035;BME280;4552;43.422;24.592;2023-04-01T08:03:31;98633.91;;;19.30;50.03
9035;BME280;4552;43.422;24.592;2023-04-01T08:06:04;98635.47;;;19.45;50.04
9035;BME280;4552;43.422;24.592;2023-04-01T08:08:44;98621.66;;;19.40;49.21
9035;BME280;4552;43.422;24.592;2023-04-01T08:18:09;98604.03;;;19.14;49.67
9035;BME280;4552;43.422;24.592;2023-04-01T08:20:44;98613.59;;;19.04;49.47
9035;BME280;4552;43.422;24.592;2023-04-01T08:23:16;98614.09;;;19.09;49.32
9035;BME280;4552;43.422;24.592;2023-04-01T08:35:54;98630.56;;;19.52;47.91
9035;BME280;4552;43.422;24.592;2023-04-01T08:38:28;98634.09;;;19.88;48.71
9035;BME280;4552;43.422;24.592;2023-04-01T08:40:59;98621.16;;;20.43;46.58
9035;BME280;4552;43.422;24.592;2023-04-01T08:46:32;98645.88;;;20.33;44.83
9035;BME280;4552;43.422;24.592;2023-04-01T08:49:12;98635.88;;;20.36;46.03
9035;BME280;4552;43.422;24.592;2023-04-01T08:52:05;98629.84;;;19.98;46.59
9035;BME280;4552;43.422;24.592;2023-04-01T09:21:05;98565.38;;;20.20;43.25
9035;BME280;4552;43.422;24.592;2023-04-01T09:23:47;98552.34;;;20.04;43.62
9035;BME280;4552;43.422;24.592;2023-04-01T10:14:44;98560.50;;;17.62;55.27
9035;BME280;4552;43.422;24.592;2023-04-01T10:21:07;98535.31;;;17.14;57.44
9035;BME280;4552;43.422;24.592;2023-04-01T10:23:59;98528.44;;;17.66;56.18
9035;BME280;4552;43.422;24.592;2023-04-01T11:09:28;98453.38;;;17.94;55.37
9035;BME280;4552;43.422;24.592;2023-04-01T11:18:57;98463.25;;;17.78;55.20
9035;BME280;4552;43.422;24.592;2023-04-01T11:51:39;98442.22;;;17.89;57.92
9035;BME280;4552;43.422;24.592;2023-04-01T11:54:20;98456.53;;;17.86;58.76
9035;BME280;4552;43.422;24.592;2023-04-01T11:57:01;98449.63;;;17.84;59.08
9035;BME280;4552;43.422;24.592;2023-04-01T11:59:50;98442.56;;;17.58;60.01
9035;BME280;4552;43.422;24.592;2023-04-01T12:02:26;98439.03;;;17.30;61.81
9035;BME280;4552;43.422;24.592;2023-04-01T12:05:12;98443.34;;;17.46;62.01
9035;BME280;4552;43.422;24.592;2023-04-01T12:08:04;98439.03;;;17.30;61.20
9035;BME280;4552;43.422;24.592;2023-04-01T12:20:49;98424.78;;;16.92;61.68
9035;BME280;4552;43.422;24.592;2023-04-01T12:23:40;98423.19;;;17.16;61.63
9035;BME280;4552;43.422;24.592;2023-04-01T12:29:28;98413.72;;;17.80;59.49
9035;BME280;4552;43.422;24.592;2023-04-01T12:32:09;98415.97;;;17.47;61.73
9035;BME280;4552;43.422;24.592;2023-04-01T12:34:51;98415.97;;;17.47;62.04
9035;BME280;4552;43.422;24.592;2023-04-01T12:37:30;98405.84;;;17.12;64.15
9035;BME280;4552;43.422;24.592;2023-04-01T12:50:34;98443.19;;;17.35;63.88
9035;BME280;4552;43.422;24.592;2023-04-01T12:53:22;98448.13;;;17.26;63.76
9035;BME280;4552;43.422;24.592;2023-04-01T12:55:52;98455.38;;;16.82;64.87
9035;BME280;4552;43.422;24.592;2023-04-01T12:58:48;98472.63;;;17.02;64.71
9035;BME280;4552;43.422;24.592;2023-04-01T13:01:54;98474.78;;;17.09;64.23
9035;BME280;4552;43.422;24.592;2023-04-01T13:04:45;98477.66;;;16.92;65.17
9035;BME280;4552;43.422;24.592;2023-04-01T13:07:31;98483.59;;;16.68;64.86
9035;BME280;4552;43.422;24.592;2023-04-01T13:10:08;98496.06;;;16.52;66.21
9035;BME280;4552;43.422;24.592;2023-04-01T13:12:55;98496.56;;;16.29;67.12
9035;BME280;4552;43.422;24.592;2023-04-01T13:15:29;98520.47;;;16.55;67.61
9035;BME280;4552;43.422;24.592;2023-04-01T13:18:05;98525.94;;;16.52;67.34
9035;BME280;4552;43.422;24.592;2023-04-01T13:20:45;98532.47;;;16.47;67.60
9035;BME280;4552;43.422;24.592;2023-04-01T13:23:28;98521.31;;;16.12;70.16
9035;BME280;4552;43.422;24.592;2023-04-01T13:26:05;98542.31;;;15.84;73.66
9035;BME280;4552;43.422;24.592;2023-04-01T13:28:36;98547.44;;;15.56;77.56
9035;BME280;4552;43.422;24.592;2023-04-01T13:31:08;98556.84;;;15.29;82.02
9035;BME280;4552;43.422;24.592;2023-04-01T13:33:46;98566.34;;;15.00;86.35
9035;BME280;4552;43.422;24.592;2023-04-01T13:36:23;98592.34;;;14.74;90.33
9035;BME280;4552;43.422;24.592;2023-04-01T13:39:06;98595.78;;;14.42;93.65
9035;BME280;4552;43.422;24.592;2023-04-01T13:48:42;98637.00;;;13.88;100.00
9035;BME280;4552;43.422;24.592;2023-04-01T13:51:23;98653.94;;;13.64;100.00
9035;BME280;4552;43.422;24.592;2023-04-01T14:53:43;98459.16;;;14.85;100.00
9035;BME280;4552;43.422;24.592;2023-04-01T14:56:11;98446.28;;;14.95;100.00
9035;BME280;4552;43.422;24.592;2023-04-01T14:58:44;98447.13;;;14.80;100.00
9035;BME280;4552;43.422;24.592;2023-04-01T15:01:25;98438.22;;;14.67;100.00
9035;BME280;4552;43.422;24.592;2023-04-01T15:04:15;98436.25;;;14.86;100.00
9035;BME280;4552;43.422;24.592;2023-04-01T15:07:04;98420.63;;;14.67;100.00
9035;BME280;4552;43.422;24.592;2023-04-01T15:09:39;98417.47;;;14.61;100.00
9035;BME280;4552;43.422;24.592;2023-04-01T15:29:51;98362.00;;;14.64;100.00
9035;BME280;4552;43.422;24.592;2023-04-01T15:32:29;98361.75;;;14.53;100.00
9035;BME280;4552;43.422;24.592;2023-04-01T15:35:19;98358.84;;;14.57;100.00
9035;BME280;4552;43.422;24.592;2023-04-01T15:37:54;98355.63;;;14.52;100.00
9035;BME280;4552;43.422;24.592;2023-04-01T16:20:57;98412.97;;;13.80;100.00
9035;BME280;4552;43.422;24.592;2023-04-01T16:23:35;98426.56;;;13.71;100.00
9035;BME280;4552;43.422;24.592;2023-04-01T16:26:07;98440.50;;;13.73;100.00
9035;BME280;4552;43.422;24.592;2023-04-01T16:28:39;98449.69;;;13.65;100.00
9035;BME280;4552;43.422;24.592;2023-04-01T16:31:12;98458.09;;;13.54;100.00
9035;BME280;4552;43.422;24.592;2023-04-01T16:33:49;98457.34;;;13.52;100.00
9035;BME280;4552;43.422;24.592;2023-04-01T16:36:26;98471.25;;;13.54;100.00
9035;BME280;4552;43.422;24.592;2023-04-01T16:39:08;98479.28;;;13.51;100.00
9035;BME280;4552;43.422;24.592;2023-04-01T16:41:40;98476.63;;;13.34;100.00
9035;BME280;4552;43.422;24.592;2023-04-01T16:44:16;98478.66;;;13.29;100.00
9035;BME280;4552;43.422;24.592;2023-04-01T16:46:46;98504.41;;;13.40;100.00
9035;BME280;4552;43.422;24.592;2023-04-01T16:49:29;98525.00;;;13.30;100.00
9035;BME280;4552;43.422;24.592;2023-04-01T16:52:13;98547.09;;;13.08;100.00
9035;BME280;4552;43.422;24.592;2023-04-01T16:54:43;98586.97;;;12.97;100.00
9035;BME280;4552;43.422;24.592;2023-04-01T16:57:20;98596.50;;;12.60;100.00
9035;BME280;4552;43.422;24.592;2023-04-01T16:59:55;98600.78;;;12.62;100.00
9035;BME280;4552;43.422;24.592;2023-04-01T17:02:28;98586.28;;;12.54;100.00
9035;BME280;4552;43.422;24.592;2023-04-01T17:05:01;98596.03;;;12.50;100.00
9035;BME280;4552;43.422;24.592;2023-04-01T17:07:41;98599.66;;;12.48;100.00
9035;BME280;4552;43.422;24.592;2023-04-01T17:10:28;98600.94;;;12.59;100.00
9035;BME280;4552;43.422;24.592;2023-04-01T17:13:24;98607.28;;;12.54;100.00
9035;BME280;4552;43.422;24.592;2023-04-01T17:16:00;98621.53;;;12.48;100.00
9035;BME280;4552;43.422;24.592;2023-04-01T17:22:22;98622.69;;;12.41;100.00
9035;BME280;4552;43.422;24.592;2023-04-01T17:25:02;98625.84;;;12.49;100.00
9035;BME280;4552;43.422;24.592;2023-04-01T17:27:41;98630.28;;;12.47;100.00
9035;BME280;4552;43.422;24.592;2023-04-01T17:30:24;98621.91;;;12.39;100.00
9035;BME280;4552;43.422;24.592;2023-04-01T17:33:10;98632.66;;;12.33;100.00
9035;BME280;4552;43.422;24.592;2023-04-01T17:35:50;98624.38;;;12.22;100.00
9035;BME280;4552;43.422;24.592;2023-04-01T17:38:46;98625.66;;;12.12;100.00
9035;BME280;4552;43.422;24.592;2023-04-01T17:41:31;98624.22;;;12.05;100.00
9035;BME280;4552;43.422;24.592;2023-04-01T17:44:07;98641.66;;;12.06;100.00
9035;BME280;4552;43.422;24.592;2023-04-01T17:47:00;98637.69;;;11.96;100.00
9035;BME280;4552;43.422;24.592;2023-04-01T17:49:35;98628.38;;;11.89;100.00
9035;BME280;4552;43.422;24.592;2023-04-01T17:52:10;98643.31;;;11.87;100.00
9035;BME280;4552;43.422;24.592;2023-04-01T17:54:48;98647.38;;;11.94;100.00
9035;BME280;4552;43.422;24.592;2023-04-01T17:57:43;98640.31;;;11.96;100.00
9035;BME280;4552;43.422;24.592;2023-04-01T18:00:18;98641.59;;;11.86;100.00
9035;BME280;4552;43.422;24.592;2023-04-01T18:02:57;98643.19;;;11.90;100.00
9035;BME280;4552;43.422;24.592;2023-04-01T18:05:33;98643.19;;;11.90;100.00
9035;BME280;4552;43.422;24.592;2023-04-01T18:08:17;98646.81;;;11.86;100.00
9035;BME280;4552;43.422;24.592;2023-04-01T18:24:24;98676.72;;;11.59;100.00
9035;BME280;4552;43.422;24.592;2023-04-01T18:27:02;98675.63;;;11.66;100.00
9035;BME280;4552;43.422;24.592;2023-04-01T18:29:38;98687.72;;;11.68;100.00
9035;BME280;4552;43.422;24.592;2023-04-01T18:32:24;98668.28;;;11.51;100.00
9035;BME280;4552;43.422;24.592;2023-04-01T18:34:59;98677.75;;;11.55;100.00
9035;BME280;4552;43.422;24.592;2023-04-01T18:37:31;98695.97;;;11.58;100.00
9035;BME280;4552;43.422;24.592;2023-04-01T18:40:11;98699.56;;;11.55;100.00
9035;BME280;4552;43.422;24.592;2023-04-01T18:42:46;98702.19;;;11.55;100.00
9035;BME280;4552;43.422;24.592;2023-04-01T18:45:23;98706.50;;;11.56;100.00
9035;BME280;4552;43.422;24.592;2023-04-01T18:48:00;98710.09;;;11.54;100.00
9035;BME280;4552;43.422;24.592;2023-04-01T18:50:38;98720.56;;;11.54;100.00
9035;BME280;4552;43.422;24.592;2023-04-01T18:53:17;98717.16;;;11.52;100.00
9035;BME280;4552;43.422;24.592;2023-04-01T18:59:40;98713.97;;;11.44;100.00
9035;BME280;4552;43.422;24.592;2023-04-01T19:02:19;98722.22;;;11.33;100.00
9035;BME280;4552;43.422;24.592;2023-04-01T19:05:03;98725.72;;;11.34;100.00
9035;BME280;4552;43.422;24.592;2023-04-01T19:07:45;98726.59;;;11.33;100.00
9035;BME280;4552;43.422;24.592;2023-04-01T19:10:25;98729.16;;;11.34;100.00
9035;BME280;4552;43.422;24.592;2023-04-01T19:13:10;98730.41;;;11.24;98.97
9035;BME280;4552;43.422;24.592;2023-04-01T19:15:46;98730.56;;;11.20;98.53
9035;BME280;4552;43.422;24.592;2023-04-01T19:21:13;98739.53;;;11.13;97.61
9035;BME280;4552;43.422;24.592;2023-04-01T19:26:36;98750.00;;;11.13;96.09
9035;BME280;4552;43.422;24.592;2023-04-01T19:29:17;98749.34;;;11.08;95.11
9035;BME280;4552;43.422;24.592;2023-04-01T19:32:12;98763.28;;;11.08;94.40
9035;BME280;4552;43.422;24.592;2023-04-01T19:34:49;98751.16;;;11.06;95.25
9035;BME280;4552;43.422;24.592;2023-04-01T19:37:30;98752.06;;;11.05;94.32
9035;BME280;4552;43.422;24.592;2023-04-01T19:40:15;98754.03;;;10.98;94.68
9035;BME280;4552;43.422;24.592;2023-04-01T19:42:48;98762.81;;;10.97;94.54
9035;BME280;4552;43.422;24.592;2023-04-01T19:45:29;98769.91;;;10.94;94.13
9035;BME280;4552;43.422;24.592;2023-04-01T19:48:08;98773.59;;;10.87;95.08
9035;BME280;4552;43.422;24.592;2023-04-01T19:50:40;98774.53;;;10.86;93.74
9035;BME280;4552;43.422;24.592;2023-04-01T19:53:19;98767.53;;;10.86;94.63
9035;BME280;4552;43.422;24.592;2023-04-01T19:55:55;98774.59;;;10.84;93.55
9035;BME280;4552;43.422;24.592;2023-04-01T19:58:31;98771.03;;;10.85;92.42
9035;BME280;4552;43.422;24.592;2023-04-01T20:04:28;98753.28;;;10.69;92.38
9035;BME280;4552;43.422;24.592;2023-04-01T20:07:05;98767.00;;;10.77;92.86
9035;BME280;4552;43.422;24.592;2023-04-01T20:09:45;98760.63;;;10.84;92.10
9035;BME280;4552;43.422;24.592;2023-04-01T20:12:24;98759.19;;;10.75;92.79
9035;BME280;4552;43.422;24.592;2023-04-01T20:15:02;98751.28;;;10.77;91.60
9035;BME280;4552;43.422;24.592;2023-04-01T20:17:40;98762.38;;;10.85;90.53
9035;BME280;4552;43.422;24.592;2023-04-01T20:20:19;98759.69;;;10.86;90.93
9035;BME280;4552;43.422;24.592;2023-04-01T20:23:16;98763.13;;;10.87;90.65
9035;BME280;4552;43.422;24.592;2023-04-01T20:32:45;98772.53;;;10.94;88.99
9035;BME280;4552;43.422;24.592;2023-04-01T20:35:35;98774.16;;;10.96;89.03
9035;BME280;4552;43.422;24.592;2023-04-01T20:38:24;98781.97;;;10.98;89.37
9035;BME280;4552;43.422;24.592;2023-04-01T21:04:40;98793.16;;;10.77;89.39
9035;BME280;4552;43.422;24.592;2023-04-01T21:07:21;98802.03;;;10.73;89.00
9035;BME280;4552;43.422;24.592;2023-04-01T21:10:22;98808.00;;;10.76;89.05
9035;BME280;4552;43.422;24.592;2023-04-01T21:33:59;98812.09;;;10.85;87.04
9035;BME280;4552;43.422;24.592;2023-04-01T21:36:42;98798.94;;;10.86;87.44
9035;BME280;4552;43.422;24.592;2023-04-01T21:39:23;98812.19;;;10.82;87.23
9035;BME280;4552;43.422;24.592;2023-04-01T21:42:06;98786.13;;;10.79;87.36
9035;BME280;4552;43.422;24.592;2023-04-01T21:44:47;98807.78;;;10.82;87.12
9035;BME280;4552;43.422;24.592;2023-04-01T21:47:55;98797.47;;;10.78;87.03
9035;BME280;4552;43.422;24.592;2023-04-01T21:50:45;98799.94;;;10.82;87.39
9035;BME280;4552;43.422;24.592;2023-04-01T21:53:32;98801.81;;;10.79;87.75
9035;BME280;4552;43.422;24.592;2023-04-01T22:00:17;98792.94;;;10.83;87.67
9035;BME280;4552;43.422;24.592;2023-04-01T22:06:15;98798.28;;;10.80;88.13
9035;BME280;4552;43.422;24.592;2023-04-01T22:09:10;98768.25;;;10.65;87.63
9035;BME280;4552;43.422;24.592;2023-04-01T22:11:56;98781.09;;;10.73;88.34
9035;BME280;4552;43.422;24.592;2023-04-01T22:14:33;98792.34;;;10.75;88.56
9035;BME280;4552;43.422;24.592;2023-04-01T22:17:08;98782.69;;;10.77;88.77
9035;BME280;4552;43.422;24.592;2023-04-01T22:19:48;98775.03;;;10.71;88.23
9035;BME280;4552;43.422;24.592;2023-04-01T22:22:24;98780.13;;;10.75;88.62
9035;BME280;4552;43.422;24.592;2023-04-01T22:25:02;98782.78;;;10.74;88.48
9035;BME280;4552;43.422;24.592;2023-04-01T22:30:58;98780.28;;;10.71;89.10
9035;BME280;4552;43.422;24.592;2023-04-01T22:33:31;98792.34;;;10.75;88.78
9035;BME280;4552;43.422;24.592;2023-04-01T22:36:09;98790.59;;;10.75;88.78
9035;BME280;4552;43.422;24.592;2023-04-01T22:38:56;98784.59;;;10.72;88.78
9035;BME280;4552;43.422;24.592;2023-04-01T22:41:35;98785.16;;;10.81;88.71
9035;BME280;4552;43.422;24.592;2023-04-01T22:44:18;98793.88;;;10.82;88.01
9035;BME280;4552;43.422;24.592;2023-04-01T22:46:56;98783.19;;;10.88;87.47
9035;BME280;4552;43.422;24.592;2023-04-01T22:49:32;98778.75;;;10.90;87.55
9035;BME280;4552;43.422;24.592;2023-04-01T22:52:05;98788.38;;;10.89;87.28
9035;BME280;4552;43.422;24.592;2023-04-01T22:54:41;98785.81;;;10.88;87.36
9035;BME280;4552;43.422;24.592;2023-04-01T22:57:14;98789.41;;;10.84;87.35
9035;BME280;4552;43.422;24.592;2023-04-01T22:59:48;98794.84;;;10.78;87.44
9035;BME280;4552;43.422;24.592;2023-04-01T23:02:21;98791.34;;;10.79;87.40
9035;BME280;4552;43.422;24.592;2023-04-01T23:04:54;98792.94;;;10.83;86.99
9035;BME280;4552;43.422;24.592;2023-04-01T23:07:35;98794.84;;;10.78;86.99
9035;BME280;4552;43.422;24.592;2023-04-01T23:10:18;98798.41;;;10.77;86.56
9035;BME280;4552;43.422;24.592;2023-04-01T23:12:47;98787.81;;;10.80;85.99
9035;BME280;4552;43.422;24.592;2023-04-01T23:15:17;98793.06;;;10.80;85.98
9035;BME280;4552;43.422;24.592;2023-04-01T23:17:59;98779.50;;;10.67;85.64
9035;BME280;4552;43.422;24.592;2023-04-01T23:20:36;98785.31;;;10.77;85.54
9035;BME280;4552;43.422;24.592;2023-04-01T23:23:17;98793.72;;;10.86;84.30
9035;BME280;4552;43.422;24.592;2023-04-01T23:25:54;98795.00;;;10.99;83.63
9035;BME280;4552;43.422;24.592;2023-04-01T23:28:46;98800.03;;;11.05;83.19
9035;BME280;4552;43.422;24.592;2023-04-01T23:31:35;98804.19;;;11.12;82.89
9035;BME280;4552;43.422;24.592;2023-04-01T23:34:18;98803.19;;;11.15;82.18
9035;BME280;4552;43.422;24.592;2023-04-01T23:36:49;98802.06;;;11.22;82.29
9035;BME280;4552;43.422;24.592;2023-04-01T23:39:22;98796.00;;;11.21;81.50
9035;BME280;4552;43.422;24.592;2023-04-01T23:41:56;98789.78;;;11.24;81.48
9035;BME280;4552;43.422;24.592;2023-04-01T23:44:26;98795.13;;;11.21;81.30
9035;BME280;4552;43.422;24.592;2023-04-01T23:46:56;98792.41;;;11.24;81.74
9035;BME280;4552;43.422;24.592;2023-04-01T23:49:27;98795.03;;;11.24;81.57
9035;BME280;4552;43.422;24.592;2023-04-01T23:51:57;98791.34;;;11.29;81.00
9035;BME280;4552;43.422;24.592;2023-04-01T23:54:31;98804.84;;;11.42;80.00
